createdAt,value
2019-02-04T00:00:41.593Z,96.45
2019-02-04T00:01:41.580Z,96.55
2019-02-04T00:02:41.570Z,96.55
2019-02-04T00:03:41.556Z,96.55
2019-02-04T00:04:41.547Z,96.66
2019-02-04T00:05:41.537Z,96.66
2019-02-04T00:06:41.524Z,96.66
2019-02-04T00:07:41.516Z,96.55
2019-02-04T00:08:41.502Z,96.55
2019-02-04T00:09:41.494Z,96.55
2019-02-04T00:10:41.481Z,96.55
2019-02-04T00:11:41.470Z,96.55
2019-02-04T00:12:41.464Z,96.55
2019-02-04T00:13:41.450Z,96.55
2019-02-04T00:14:41.439Z,96.55
2019-02-04T00:15:41.429Z,96.55
2019-02-04T00:16:41.418Z,96.51
2019-02-04T00:17:41.413Z,96.61
2019-02-04T00:18:41.395Z,96.51
2019-02-04T00:19:41.383Z,96.41
2019-02-04T00:20:41.372Z,96.30
2019-02-04T00:21:41.363Z,96.30
2019-02-04T00:22:41.354Z,96.20
2019-02-04T00:23:41.350Z,96.05
2019-02-04T00:24:41.332Z,95.94
2019-02-04T00:25:41.322Z,95.84
2019-02-04T00:26:51.386Z,95.73
2019-02-04T00:28:02.483Z,95.63
2019-02-04T00:29:02.470Z,95.53
2019-02-04T00:30:02.462Z,95.53
2019-02-04T00:31:05.093Z,95.53
2019-02-04T00:32:02.439Z,95.42
2019-02-04T00:33:02.429Z,95.42
2019-02-04T00:34:02.424Z,95.42
2019-02-04T00:35:02.411Z,95.32
2019-02-04T00:36:02.394Z,95.32
2019-02-04T00:37:02.387Z,95.42
2019-02-04T00:38:02.461Z,95.42
2019-02-04T00:39:02.690Z,95.32
2019-02-04T00:40:02.351Z,95.21
2019-02-04T00:41:02.342Z,95.32
2019-02-04T00:42:02.330Z,95.42
2019-02-04T00:43:02.319Z,95.32
2019-02-04T00:44:02.308Z,95.42
2019-02-04T00:45:02.300Z,95.42
2019-02-04T00:46:02.289Z,95.53
2019-02-04T00:47:02.277Z,95.53
2019-02-04T00:48:02.267Z,95.63
2019-02-04T00:49:02.253Z,95.63
2019-02-04T00:50:02.243Z,95.53
2019-02-04T00:51:02.240Z,95.53
2019-02-04T00:52:02.223Z,95.53
2019-02-04T00:53:02.212Z,95.53
2019-02-04T00:54:02.202Z,95.53
2019-02-04T00:55:02.191Z,95.63
2019-02-04T00:56:02.179Z,95.53
2019-02-04T00:57:02.168Z,95.42
2019-02-04T00:58:02.161Z,95.32
2019-02-04T00:59:02.151Z,95.21
2019-02-04T01:00:02.139Z,95.32
2019-02-04T01:01:02.126Z,95.42
2019-02-04T01:02:02.115Z,95.32
2019-02-04T01:03:02.105Z,95.42
2019-02-04T01:04:02.095Z,95.53
2019-02-04T01:05:02.086Z,95.42
2019-02-04T01:06:02.070Z,95.32
2019-02-04T01:07:02.061Z,95.32
2019-02-04T01:08:02.049Z,95.42
2019-02-04T01:09:02.040Z,95.42
2019-02-04T01:10:02.031Z,95.42
2019-02-04T01:11:02.018Z,95.32
2019-02-04T01:12:02.008Z,95.21
2019-02-04T01:13:01.998Z,95.32
2019-02-04T01:14:01.983Z,95.32
2019-02-04T01:15:01.978Z,95.42
2019-02-04T01:16:01.965Z,95.42
2019-02-04T01:17:03.517Z,95.32
2019-02-04T01:18:01.942Z,95.32
2019-02-04T01:19:01.931Z,95.21
2019-02-04T01:20:01.919Z,95.00
2019-02-04T01:21:01.912Z,95.00
2019-02-04T01:22:01.899Z,94.86
2019-02-04T01:23:01.902Z,94.65
2019-02-04T01:24:01.994Z,94.65
2019-02-04T01:25:01.866Z,94.54
2019-02-04T01:26:01.853Z,94.33
2019-02-04T01:27:01.843Z,94.23
2019-02-04T01:28:01.833Z,94.33
2019-02-04T01:29:01.822Z,94.33
2019-02-04T01:30:01.811Z,94.33
2019-02-04T01:31:01.798Z,94.54
2019-02-04T01:32:01.790Z,94.75
2019-02-04T01:33:01.778Z,94.79
2019-02-04T01:34:01.767Z,94.90
2019-02-04T01:35:01.757Z,94.86
2019-02-04T01:36:01.745Z,95.06
2019-02-04T01:37:01.735Z,95.06
2019-02-04T01:38:01.722Z,95.06
2019-02-04T01:39:01.713Z,95.17
2019-02-04T01:40:01.703Z,95.06
2019-02-04T01:41:01.691Z,95.17
2019-02-04T01:42:01.688Z,95.17
2019-02-04T01:43:01.684Z,95.17
2019-02-04T01:44:01.661Z,95.17
2019-02-04T01:45:01.651Z,94.96
2019-02-04T01:46:01.641Z,94.92
2019-02-04T01:47:01.629Z,94.81
2019-02-04T01:48:01.614Z,94.81
2019-02-04T01:49:01.604Z,94.81
2019-02-04T01:50:01.594Z,94.81
2019-02-04T01:51:01.584Z,94.71
2019-02-04T01:52:01.571Z,94.50
2019-02-04T01:53:01.561Z,94.29
2019-02-04T01:54:01.554Z,94.18
2019-02-04T01:55:01.542Z,94.18
2019-02-04T01:56:01.530Z,94.18
2019-02-04T01:57:01.518Z,94.08
2019-02-04T01:58:01.506Z,93.98
2019-02-04T01:59:01.499Z,93.98
2019-02-04T02:00:01.489Z,94.08
2019-02-04T02:01:01.476Z,94.29
2019-02-04T02:02:01.464Z,94.50
2019-02-04T02:03:01.458Z,94.71
2019-02-04T02:04:01.444Z,94.71
2019-02-04T02:05:01.432Z,94.61
2019-02-04T02:06:01.422Z,94.39
2019-02-04T02:07:01.412Z,94.29
2019-02-04T02:08:01.403Z,94.61
2019-02-04T02:09:01.387Z,94.61
2019-02-04T02:10:01.379Z,94.50
2019-02-04T02:11:01.368Z,94.61
2019-02-04T02:12:01.355Z,94.61
2019-02-04T02:13:01.358Z,94.50
2019-02-04T02:14:01.336Z,94.43
2019-02-04T02:15:01.326Z,94.54
2019-02-04T02:16:01.312Z,94.86
2019-02-04T02:17:01.303Z,95.21
2019-02-04T02:18:01.291Z,95.42
2019-02-04T02:19:01.282Z,95.63
2019-02-04T02:20:01.275Z,95.94
2019-02-04T02:21:01.258Z,96.20
2019-02-04T02:22:01.249Z,96.30
2019-02-04T02:23:01.237Z,96.41
2019-02-04T02:24:01.228Z,96.41
2019-02-04T02:25:01.217Z,96.45
2019-02-04T02:26:01.205Z,96.55
2019-02-04T02:27:01.195Z,96.66
2019-02-04T02:28:01.183Z,96.77
2019-02-04T02:29:01.174Z,96.97
2019-02-04T02:30:01.167Z,96.66
2019-02-04T02:31:01.151Z,96.55
2019-02-04T02:32:01.139Z,96.45
2019-02-04T02:33:01.128Z,96.45
2019-02-04T02:34:01.120Z,96.45
2019-02-04T02:35:01.110Z,96.55
2019-02-04T02:36:01.097Z,96.45
2019-02-04T02:37:01.086Z,96.45
2019-02-04T02:38:01.077Z,96.55
2019-02-04T02:39:01.070Z,96.55
2019-02-04T02:40:01.055Z,96.45
2019-02-04T02:41:01.044Z,96.45
2019-02-04T02:42:01.036Z,96.45
2019-02-04T02:43:01.023Z,96.45
2019-02-04T08:26:18.541Z,92.79
2019-02-04T08:27:18.533Z,92.12
2019-02-04T08:28:18.519Z,91.60
2019-02-04T08:29:18.509Z,91.28
2019-02-04T08:30:18.498Z,91.28
2019-02-04T08:31:18.487Z,91.39
2019-02-04T08:32:18.476Z,91.49
2019-02-04T08:33:18.466Z,91.70
2019-02-04T08:34:18.456Z,91.80
2019-02-04T08:35:18.443Z,91.70
2019-02-04T08:36:18.431Z,91.80
2019-02-04T08:37:18.425Z,92.01
2019-02-04T08:38:18.411Z,92.12
2019-02-04T08:39:18.399Z,92.18
2019-02-04T08:40:18.391Z,92.18
2019-02-04T08:41:18.380Z,92.18
2019-02-04T08:42:18.369Z,91.55
2019-02-04T08:43:18.358Z,91.24
2019-02-04T08:44:18.344Z,90.82
2019-02-04T08:45:18.334Z,90.82
2019-02-04T08:46:18.324Z,91.03
2019-02-04T08:47:23.098Z,91.24
2019-02-04T08:48:18.303Z,91.35
2019-02-04T08:49:18.294Z,91.35
2019-02-04T08:50:18.287Z,91.41
2019-02-04T08:51:18.274Z,91.41
2019-02-04T08:52:18.267Z,91.61
2019-02-04T08:53:18.248Z,91.83
2019-02-04T08:54:18.240Z,91.93
2019-02-04T08:55:18.228Z,92.04
2019-02-04T08:56:18.216Z,91.89
2019-02-04T08:57:18.207Z,91.79
2019-02-04T08:58:18.195Z,91.89
2019-02-04T08:59:18.183Z,91.89
2019-02-04T09:00:18.175Z,91.79
2019-02-04T09:01:18.161Z,91.64
2019-02-04T09:02:18.154Z,91.74
2019-02-04T09:03:18.187Z,91.39
2019-02-04T09:04:18.161Z,90.86
2019-02-04T09:05:18.126Z,90.55
2019-02-04T09:06:18.110Z,90.66
2019-02-04T09:07:18.097Z,90.51
2019-02-04T09:08:18.091Z,89.78
2019-02-04T09:09:18.076Z,89.67
2019-02-04T09:10:18.065Z,89.89
2019-02-04T09:11:18.055Z,89.57
2019-02-04T09:12:18.057Z,89.57
2019-02-04T09:13:18.040Z,89.36
2019-02-04T09:14:18.024Z,89.11
2019-02-04T09:15:18.013Z,89.22
2019-02-04T09:16:18.000Z,89.28
2019-02-04T09:17:17.991Z,88.76
2019-02-04T09:18:17.981Z,87.89
2019-02-04T09:19:18.006Z,87.82
2019-02-04T09:20:17.968Z,87.68
2019-02-04T09:21:17.949Z,86.43
2019-02-04T09:22:17.939Z,86.70
2019-02-04T09:23:17.926Z,87.01
2019-02-04T09:24:17.917Z,87.22
2019-02-04T09:25:17.904Z,86.66
2019-02-04T09:26:17.895Z,86.66
2019-02-04T09:27:17.883Z,86.35
2019-02-04T09:28:17.876Z,86.21
2019-02-04T09:29:17.861Z,85.16
2019-02-04T09:30:17.941Z,84.54
2019-02-04T09:31:17.839Z,85.00
2019-02-04T09:32:17.828Z,85.10
2019-02-04T09:33:17.818Z,85.31
2019-02-04T09:34:17.809Z,83.71
2019-02-04T09:35:17.808Z,82.78
2019-02-04T09:36:17.786Z,83.50
2019-02-04T09:37:17.775Z,83.88
2019-02-04T09:38:17.765Z,84.61
2019-02-04T09:39:17.758Z,85.13
2019-02-04T09:40:17.743Z,83.94
2019-02-04T09:41:17.738Z,82.32
2019-02-04T09:42:17.723Z,82.25
2019-02-04T09:43:17.711Z,81.84
2019-02-04T09:44:17.699Z,81.84
2019-02-04T09:45:17.688Z,82.46
2019-02-04T09:46:17.679Z,83.50
2019-02-04T09:47:17.670Z,83.30
2019-02-04T09:48:17.658Z,83.61
2019-02-04T09:49:17.646Z,81.98
2019-02-04T09:50:21.806Z,82.61
2019-02-04T09:51:17.625Z,82.36
2019-02-04T09:52:17.613Z,82.46
2019-02-04T09:53:17.605Z,82.46
2019-02-04T09:54:17.592Z,82.01
2019-02-04T09:55:17.587Z,81.63
2019-02-04T09:56:17.577Z,82.98
2019-02-04T09:57:17.561Z,82.53
2019-02-04T09:58:17.684Z,81.39
2019-02-04T09:59:17.661Z,81.59
2019-02-04T10:00:17.528Z,81.28
2019-02-04T10:01:17.520Z,81.97
2019-02-04T10:02:17.511Z,80.83
2019-02-04T10:03:17.495Z,80.76
2019-02-04T10:04:17.486Z,81.28
2019-02-04T10:05:17.482Z,80.87
2019-02-04T10:06:17.465Z,82.91
2019-02-04T10:07:17.454Z,83.63
2019-02-04T10:08:17.449Z,84.01
2019-02-04T10:09:17.430Z,81.79
2019-02-04T10:10:17.424Z,79.54
2019-02-04T10:11:17.409Z,79.02
2019-02-04T10:12:17.400Z,80.27
2019-02-04T10:13:17.387Z,80.07
2019-02-04T10:14:17.376Z,79.96
2019-02-04T10:15:17.399Z,80.69
2019-02-04T10:16:17.355Z,80.79
2019-02-04T10:17:17.370Z,79.44
2019-02-04T10:18:17.346Z,79.27
2019-02-04T10:19:17.325Z,79.68
2019-02-04T10:20:17.342Z,80.41
2019-02-04T10:21:17.338Z,80.73
2019-02-04T10:22:17.300Z,80.00
2019-02-04T10:23:17.351Z,80.62
2019-02-04T10:24:17.267Z,79.68
2019-02-04T10:25:17.259Z,80.52
2019-02-04T10:26:17.272Z,81.04
2019-02-04T10:27:17.236Z,80.17
2019-02-04T10:28:17.252Z,80.48
2019-02-04T10:29:17.222Z,79.44
2019-02-04T10:30:17.210Z,79.44
2019-02-04T10:31:17.194Z,79.33
2019-02-04T10:32:17.189Z,78.71
2019-02-04T10:33:17.316Z,79.13
2019-02-04T10:34:17.173Z,79.76
2019-02-04T10:35:17.272Z,79.54
2019-02-04T10:36:17.146Z,78.92
2019-02-04T10:37:17.166Z,79.13
2019-02-04T10:38:17.133Z,79.54
2019-02-04T10:39:17.126Z,79.54
2019-02-04T10:40:17.099Z,79.13
2019-02-04T10:41:17.135Z,78.05
2019-02-04T10:42:17.101Z,78.05
2019-02-04T10:43:17.113Z,78.68
2019-02-04T10:44:17.062Z,78.47
2019-02-04T10:45:17.045Z,78.68
2019-02-04T10:46:17.033Z,78.05
2019-02-04T10:47:17.054Z,77.22
2019-02-04T10:48:17.020Z,76.50
2019-02-04T10:49:17.040Z,77.26
2019-02-04T10:50:16.988Z,77.16
2019-02-04T10:51:16.998Z,76.70
2019-02-04T10:52:16.968Z,76.70
2019-02-04T10:53:16.970Z,76.81
2019-02-04T10:54:16.984Z,77.85
2019-02-04T10:55:16.957Z,77.53
2019-02-04T10:56:16.965Z,77.43
2019-02-04T10:57:16.912Z,76.81
2019-02-04T10:58:16.925Z,78.16
2019-02-04T10:59:16.892Z,76.67
2019-02-04T11:00:16.926Z,76.98
2019-02-04T11:01:16.908Z,76.98
2019-02-04T11:02:16.889Z,77.09
2019-02-04T11:03:19.853Z,75.95
2019-02-04T11:04:16.841Z,75.39
2019-02-04T11:05:16.849Z,75.70
2019-02-04T11:06:16.838Z,75.08
2019-02-04T11:07:16.820Z,75.29
2019-02-04T11:08:16.838Z,75.29
2019-02-04T11:09:16.796Z,75.04
2019-02-04T11:10:16.770Z,74.73
2019-02-04T11:11:16.807Z,75.04
2019-02-04T11:12:16.761Z,74.63
2019-02-04T11:13:16.779Z,72.80
2019-02-04T11:14:16.741Z,72.90
2019-02-04T11:15:16.745Z,72.49
2019-02-04T11:16:16.706Z,72.90
2019-02-04T11:17:16.738Z,73.32
2019-02-04T11:18:16.698Z,73.80
2019-02-04T11:19:16.684Z,74.21
2019-02-04T11:20:16.704Z,72.59
2019-02-04T11:21:16.696Z,73.21
2019-02-04T11:22:16.647Z,73.21
2019-02-04T11:23:16.684Z,73.07
2019-02-04T11:24:16.619Z,72.77
2019-02-04T11:25:16.746Z,73.07
2019-02-04T11:26:16.663Z,71.45
2019-02-04T11:27:16.598Z,71.86
2019-02-04T11:28:16.665Z,71.24
2019-02-04T11:29:18.743Z,72.07
2019-02-04T11:30:16.598Z,72.38
2019-02-04T11:31:16.577Z,72.28
2019-02-04T11:32:16.567Z,72.18
2019-02-04T11:33:16.567Z,72.38
2019-02-04T11:34:16.513Z,71.86
2019-02-04T11:35:16.504Z,71.76
2019-02-04T11:36:16.519Z,71.14
2019-02-04T11:37:16.483Z,71.00
2019-02-04T11:38:16.531Z,71.11
2019-02-04T11:39:16.460Z,71.52
2019-02-04T11:40:16.498Z,70.69
2019-02-04T11:41:16.437Z,71.21
2019-02-04T11:42:16.426Z,70.56
2019-02-04T11:43:16.446Z,70.56
2019-02-04T11:44:16.406Z,70.25
2019-02-04T11:45:16.393Z,70.42
2019-02-04T11:46:16.388Z,71.14
2019-02-04T11:47:16.375Z,71.25
2019-02-04T11:48:16.409Z,70.42
2019-02-04T11:49:16.352Z,70.31
2019-02-04T11:50:16.342Z,69.59
2019-02-04T11:51:16.330Z,68.87
2019-02-04T11:52:16.320Z,69.49
2019-02-04T11:53:16.309Z,68.87
2019-02-04T11:54:16.296Z,68.97
2019-02-04T11:55:16.299Z,69.69
2019-02-04T11:56:16.275Z,68.97
2019-02-04T11:57:16.268Z,68.35
2019-02-04T11:58:16.253Z,68.87
2019-02-04T11:59:16.250Z,68.66
2019-02-04T12:00:16.235Z,69.18
2019-02-04T12:01:16.220Z,68.45
2019-02-04T12:02:16.211Z,67.00
2019-02-04T12:03:16.198Z,66.97
2019-02-04T12:04:16.189Z,67.49
2019-02-04T12:05:16.178Z,68.63
2019-02-04T12:06:17.575Z,66.63
2019-02-04T12:07:16.158Z,67.15
2019-02-04T12:08:16.145Z,67.80
2019-02-04T12:09:16.137Z,68.01
2019-02-04T12:10:16.126Z,67.80
2019-02-04T12:11:16.233Z,67.77
2019-02-04T12:12:16.219Z,66.04
2019-02-04T12:13:16.094Z,65.52
2019-02-04T12:14:16.089Z,65.94
2019-02-04T12:15:16.073Z,66.66
2019-02-04T12:16:16.059Z,66.55
2019-02-04T12:17:16.049Z,65.52
2019-02-04T12:18:16.038Z,66.04
2019-02-04T12:19:16.027Z,68.32
2019-02-04T12:20:16.014Z,69.11
2019-02-04T12:21:21.491Z,66.73
2019-02-04T12:22:15.996Z,66.63
2019-02-04T12:23:15.984Z,64.87
2019-02-04T12:24:15.972Z,66.49
2019-02-04T12:25:15.963Z,64.30
2019-02-04T12:26:15.951Z,64.30
2019-02-04T12:27:15.940Z,64.34
2019-02-04T12:28:15.931Z,63.41
2019-02-04T12:29:15.918Z,64.03
2019-02-04T12:30:15.909Z,65.06
2019-02-04T12:31:15.897Z,63.54
2019-02-04T12:32:15.887Z,63.88
2019-02-04T12:33:15.879Z,62.64
2019-02-04T12:34:15.868Z,63.13
2019-02-04T12:35:15.855Z,64.47
2019-02-04T12:36:15.843Z,64.99
2019-02-04T12:37:15.832Z,63.41
2019-02-04T12:38:15.825Z,62.61
2019-02-04T12:39:15.813Z,61.58
2019-02-04T12:40:15.801Z,62.09
2019-02-04T12:41:15.792Z,61.37
2019-02-04T12:42:15.780Z,62.27
2019-02-04T12:43:15.768Z,61.16
2019-02-04T12:44:15.757Z,61.71
2019-02-04T12:45:15.746Z,60.78
2019-02-04T12:46:15.736Z,62.20
2019-02-04T12:47:15.728Z,61.16
2019-02-04T12:48:15.714Z,61.48
2019-02-04T12:49:15.703Z,61.37
2019-02-04T12:50:15.806Z,63.51
2019-02-04T12:51:15.783Z,62.58
2019-02-04T12:52:15.669Z,63.92
2019-02-04T12:53:15.658Z,62.48
2019-02-04T12:54:15.648Z,60.85
2019-02-04T12:55:15.639Z,62.02
2019-02-04T12:56:15.627Z,61.60
2019-02-04T12:57:15.617Z,60.88
2019-02-04T12:58:15.606Z,61.29
2019-02-04T12:59:15.593Z,61.60
2019-02-04T13:00:15.583Z,64.06
2019-02-04T13:01:15.574Z,61.50
2019-02-04T13:02:15.567Z,61.68
2019-02-04T13:03:15.552Z,61.68
2019-02-04T13:04:15.541Z,61.19
2019-02-04T13:05:15.529Z,59.95
2019-02-04T13:06:15.519Z,61.40
2019-02-04T13:07:15.508Z,61.60
2019-02-04T13:08:15.500Z,61.09
2019-02-04T13:09:15.487Z,61.92
2019-02-04T13:10:15.475Z,60.88
2019-02-04T13:11:15.466Z,60.26
2019-02-04T13:12:15.456Z,60.57
2019-02-04T13:13:15.442Z,61.63
2019-02-04T13:14:15.433Z,60.91
2019-02-04T13:15:15.423Z,60.91
2019-02-04T13:16:15.415Z,60.60
2019-02-04T13:17:15.400Z,61.81
2019-02-04T13:18:15.388Z,62.33
2019-02-04T13:19:15.377Z,60.16
2019-02-04T13:20:15.367Z,61.88
2019-02-04T13:21:15.358Z,61.37
2019-02-04T13:22:15.346Z,61.09
2019-02-04T13:23:15.337Z,62.54
2019-02-04T13:24:15.325Z,61.74
2019-02-04T13:25:15.313Z,63.29
2019-02-04T13:26:15.312Z,61.84
2019-02-04T13:27:15.402Z,61.77
2019-02-04T13:28:15.281Z,60.63
2019-02-04T13:29:15.275Z,60.73
2019-02-04T13:30:15.261Z,60.63
2019-02-04T13:31:15.248Z,64.45
2019-02-04T13:32:15.273Z,64.25
2019-02-04T13:33:15.226Z,62.28
2019-02-04T13:34:15.218Z,64.25
2019-02-04T13:35:15.204Z,62.31
2019-02-04T13:36:15.193Z,62.18
2019-02-04T13:37:15.182Z,61.87
2019-02-04T13:38:15.174Z,63.04
2019-02-04T13:39:15.161Z,62.83
2019-02-04T13:40:15.152Z,63.32
2019-02-04T13:41:15.139Z,61.97
2019-02-04T13:42:15.132Z,62.90
2019-02-04T13:43:15.126Z,65.91
2019-02-04T13:44:15.106Z,62.87
2019-02-04T13:45:15.096Z,62.05
2019-02-04T13:46:15.090Z,63.81
2019-02-04T13:47:15.075Z,64.42
2019-02-04T13:48:15.063Z,60.63
2019-02-04T13:49:15.076Z,61.84
2019-02-04T13:50:15.043Z,62.87
2019-02-04T13:51:15.031Z,60.91
2019-02-04T13:52:15.392Z,60.26
2019-02-04T13:53:15.015Z,63.15
2019-02-04T13:54:14.999Z,61.81
2019-02-04T13:55:14.991Z,61.81
2019-02-04T13:56:14.977Z,62.95
2019-02-04T13:57:14.967Z,62.75
2019-02-04T13:58:14.956Z,62.43
2019-02-04T13:59:14.946Z,61.81
2019-02-04T14:00:14.934Z,61.09
2019-02-04T14:01:14.924Z,62.05
2019-02-04T14:02:14.916Z,60.29
2019-02-04T14:03:17.575Z,61.01
2019-02-04T14:04:14.897Z,61.01
2019-02-04T14:05:14.879Z,61.32
2019-02-04T14:06:14.869Z,62.15
2019-02-04T14:07:14.862Z,60.70
2019-02-04T14:08:14.846Z,59.98
2019-02-04T14:09:14.837Z,60.91
2019-02-04T14:10:14.827Z,62.56
2019-02-04T14:11:14.814Z,63.39
2019-02-04T14:12:14.804Z,63.60
2019-02-04T14:13:14.793Z,62.98
2019-02-04T14:14:14.782Z,63.70
2019-02-04T14:15:14.772Z,64.53
2019-02-04T14:16:14.767Z,65.05
2019-02-04T14:17:14.751Z,61.32
2019-02-04T14:18:14.742Z,63.60
2019-02-04T14:19:14.731Z,63.73
2019-02-04T14:20:14.718Z,62.07
2019-02-04T14:21:14.708Z,60.73
2019-02-04T14:22:14.695Z,61.66
2019-02-04T14:23:14.687Z,61.35
2019-02-04T14:24:14.676Z,61.77
2019-02-04T14:25:14.663Z,61.77
2019-02-04T14:26:14.654Z,59.49
2019-02-04T14:27:14.642Z,60.94
2019-02-04T14:28:14.629Z,61.35
2019-02-04T14:29:14.620Z,61.04
2019-02-04T14:30:14.622Z,64.25
2019-02-04T14:31:14.600Z,64.14
2019-02-04T14:32:14.586Z,62.83
2019-02-04T14:33:14.582Z,61.90
2019-02-04T14:34:14.566Z,61.27
2019-02-04T14:35:14.557Z,60.96
2019-02-04T14:36:14.549Z,61.90
2019-02-04T14:37:14.533Z,60.96
2019-02-04T14:38:14.570Z,60.24
2019-02-04T14:39:14.510Z,60.52
2019-02-04T14:40:18.702Z,60.83
2019-02-04T14:41:14.492Z,62.07
2019-02-04T14:42:14.480Z,59.83
2019-02-04T14:43:14.469Z,60.14
2019-02-04T14:44:14.458Z,60.24
2019-02-04T14:45:14.448Z,60.52
2019-02-04T14:46:14.436Z,66.32
2019-02-04T14:47:14.424Z,63.84
2019-02-04T14:48:14.421Z,60.19
2019-02-04T14:49:14.404Z,60.29
2019-02-04T14:50:14.392Z,60.29
2019-02-04T14:51:14.386Z,65.60
2019-02-04T14:52:21.532Z,66.42
2019-02-04T14:53:35.541Z,66.32
2019-02-04T14:54:38.127Z,64.07
2019-02-04T14:55:35.521Z,63.45
2019-02-04T14:56:35.598Z,63.65
2019-02-04T14:57:35.499Z,60.96
2019-02-04T14:58:35.498Z,61.48
2019-02-04T14:59:35.479Z,63.97
2019-02-04T15:00:35.467Z,64.20
2019-02-04T15:01:35.456Z,65.35
2019-02-04T15:02:35.447Z,65.35
2019-02-04T15:03:35.434Z,63.48
2019-02-04T15:04:35.422Z,66.48
2019-02-04T15:05:35.411Z,66.58
2019-02-04T15:06:35.401Z,63.58
2019-02-04T15:07:35.391Z,63.17
2019-02-04T15:08:35.380Z,64.52
2019-02-04T15:09:35.368Z,65.14
2019-02-04T15:10:35.358Z,64.65
2019-02-04T15:11:35.346Z,63.30
2019-02-04T15:12:35.334Z,62.65
2019-02-04T15:13:35.324Z,65.89
2019-02-04T15:14:35.313Z,66.41
2019-02-04T15:15:35.300Z,64.03
2019-02-04T15:16:35.291Z,64.03
2019-02-04T15:17:35.280Z,66.41
2019-02-04T15:18:35.272Z,68.38
2019-02-04T15:19:37.578Z,70.14
2019-02-04T15:20:35.251Z,64.68
2019-02-04T15:21:35.236Z,64.16
2019-02-04T15:22:35.227Z,63.12
2019-02-04T15:23:35.214Z,64.03
2019-02-04T15:24:35.203Z,61.88
2019-02-04T15:25:35.191Z,62.78
2019-02-04T15:26:35.183Z,63.72
2019-02-04T15:27:35.172Z,65.38
2019-02-04T15:28:35.160Z,64.78
2019-02-04T15:29:46.298Z,65.20
2019-02-04T15:30:56.319Z,65.20
2019-02-04T15:31:56.309Z,66.85
2019-02-04T15:32:56.398Z,66.44
2019-02-04T15:33:56.288Z,65.93
2019-02-04T15:35:04.272Z,64.06
2019-02-04T15:36:17.449Z,65.61
2019-02-04T15:37:17.435Z,67.27
2019-02-04T15:38:17.426Z,68.62
2019-02-04T15:39:17.415Z,67.99
2019-02-04T15:40:17.404Z,68.93
2019-02-04T15:41:17.395Z,67.51
2019-02-04T15:42:17.383Z,68.34
2019-02-04T15:43:17.373Z,68.85
2019-02-04T15:44:17.359Z,69.37
2019-02-04T15:45:17.351Z,68.65
2019-02-04T15:46:17.338Z,68.34
2019-02-04T15:47:17.327Z,69.68
2019-02-04T15:48:17.316Z,70.20
2019-02-04T15:49:17.310Z,69.79
2019-02-04T15:50:17.294Z,70.24
2019-02-04T15:51:17.284Z,69.41
2019-02-04T15:52:17.276Z,68.58
2019-02-04T15:53:17.265Z,67.85
2019-02-04T15:54:17.251Z,69.41
2019-02-04T15:55:17.238Z,69.83
2019-02-04T15:56:17.234Z,70.34
2019-02-04T15:57:17.217Z,70.24
2019-02-04T15:58:17.204Z,70.72
2019-02-04T15:59:17.199Z,68.85
2019-02-04T16:00:17.184Z,67.61
2019-02-04T16:01:17.177Z,65.75
2019-02-04T16:02:17.167Z,67.92
2019-02-04T16:03:17.153Z,68.65
2019-02-04T16:04:17.150Z,66.51
2019-02-04T16:05:17.130Z,67.85
2019-02-04T16:06:17.120Z,67.34
2019-02-04T16:07:17.118Z,70.27
2019-02-04T16:08:17.098Z,70.17
2019-02-04T16:09:17.087Z,67.37
2019-02-04T16:10:17.077Z,67.57
2019-02-04T16:11:17.062Z,69.65
2019-02-04T16:12:17.051Z,70.06
2019-02-04T16:13:17.042Z,69.65
2019-02-04T16:14:17.029Z,67.37
2019-02-04T16:15:17.020Z,69.23
2019-02-04T16:16:17.009Z,70.89
2019-02-04T16:17:16.998Z,70.27
2019-02-04T16:18:16.988Z,71.00
2019-02-04T16:19:16.980Z,70.17
2019-02-04T16:20:16.965Z,71.28
2019-02-04T16:21:16.953Z,72.45
2019-02-04T16:22:16.941Z,72.76
2019-02-04T16:23:16.936Z,73.07
2019-02-04T16:24:16.921Z,72.55
2019-02-04T16:25:16.912Z,72.24
2019-02-04T16:26:16.902Z,72.76
2019-02-04T16:27:16.889Z,70.82
2019-02-04T16:28:16.876Z,68.43
2019-02-04T16:29:16.864Z,71.41
2019-02-04T16:30:16.854Z,70.06
2019-02-04T16:31:16.845Z,70.48
2019-02-04T16:32:16.834Z,70.48
2019-02-04T16:33:16.821Z,70.37
2019-02-04T16:34:16.813Z,71.20
2019-02-04T16:35:16.798Z,70.48
2019-02-04T16:36:16.789Z,69.75
2019-02-04T16:37:16.775Z,69.62
2019-02-04T16:38:16.764Z,69.20
2019-02-04T16:39:16.752Z,71.10
2019-02-04T16:40:16.746Z,70.79
2019-02-04T16:41:16.733Z,71.20
2019-02-04T16:42:16.719Z,70.27
2019-02-04T16:43:16.709Z,69.65
2019-02-04T16:44:16.703Z,68.92
2019-02-04T16:45:16.692Z,69.75
2019-02-04T16:46:16.676Z,70.06
2019-02-04T16:47:16.666Z,69.54
2019-02-04T16:48:16.657Z,68.40
2019-02-04T16:49:16.642Z,68.71
2019-02-04T16:50:16.634Z,68.20
2019-02-04T16:51:16.623Z,68.71
2019-02-04T16:52:16.612Z,68.82
2019-02-04T16:53:16.603Z,69.44
2019-02-04T16:54:16.590Z,68.30
2019-02-04T16:55:16.586Z,70.92
2019-02-04T16:56:16.606Z,70.72
2019-02-04T16:57:16.556Z,71.17
2019-02-04T16:58:16.544Z,72.10
2019-02-04T16:59:16.535Z,72.62
2019-02-04T17:00:16.525Z,71.41
2019-02-04T17:01:16.511Z,71.82
2019-02-04T17:02:16.500Z,71.30
2019-02-04T17:03:18.768Z,70.89
2019-02-04T17:04:16.479Z,72.55
2019-02-04T17:05:16.467Z,72.24
2019-02-04T17:06:16.456Z,71.58
2019-02-04T17:07:16.447Z,71.06
2019-02-04T17:08:16.436Z,71.92
2019-02-04T17:09:16.424Z,71.82
2019-02-04T17:10:16.412Z,73.59
2019-02-04T17:11:16.402Z,73.38
2019-02-04T17:12:16.395Z,73.59
2019-02-04T17:13:16.380Z,72.52
2019-02-04T17:14:16.368Z,70.12
2019-02-04T17:15:16.359Z,72.62
2019-02-04T17:16:16.346Z,73.87
2019-02-04T17:17:16.334Z,73.80
2019-02-04T17:18:16.325Z,73.07
2019-02-04T17:19:16.316Z,72.65
2019-02-04T17:20:16.301Z,72.24
2019-02-04T17:21:16.391Z,72.03
2019-02-04T17:22:16.281Z,72.34
2019-02-04T17:23:22.530Z,73.69
2019-02-04T17:24:37.441Z,72.86
2019-02-04T17:25:37.430Z,72.76
2019-02-04T17:26:37.419Z,73.07
2019-02-04T17:27:37.409Z,72.96
2019-02-04T17:28:37.399Z,73.59
2019-02-04T17:29:37.389Z,73.90
2019-02-04T17:30:37.381Z,73.45
2019-02-04T17:31:37.367Z,71.89
2019-02-04T17:32:37.353Z,71.48
2019-02-04T17:33:37.344Z,72.00
2019-02-04T17:34:37.332Z,73.24
2019-02-04T17:35:37.320Z,73.76
2019-02-04T17:36:37.309Z,73.66
2019-02-04T17:37:37.299Z,72.83
2019-02-04T17:38:37.287Z,70.64
2019-02-04T17:39:37.279Z,72.72
2019-02-04T17:40:37.266Z,72.62
2019-02-04T17:41:37.257Z,72.93
2019-02-04T17:42:37.246Z,72.52
2019-02-04T17:43:37.234Z,73.24
2019-02-04T17:44:37.223Z,73.55
2019-02-04T17:45:37.212Z,73.76
2019-02-04T17:46:37.201Z,73.76
2019-02-04T17:47:37.190Z,73.04
2019-02-04T17:48:37.179Z,73.14
2019-02-04T17:49:37.170Z,73.45
2019-02-04T17:50:37.160Z,71.58
2019-02-04T17:51:37.152Z,71.38
2019-02-04T17:52:37.208Z,71.24
2019-02-04T17:53:37.126Z,71.34
2019-02-04T17:54:37.116Z,71.44
2019-02-04T17:55:37.105Z,71.86
2019-02-04T17:56:37.092Z,71.03
2019-02-04T17:57:37.085Z,73.32
2019-02-04T17:58:37.076Z,74.35
2019-02-04T17:59:37.099Z,73.11
2019-02-04T18:00:37.051Z,71.79
2019-02-04T18:01:37.081Z,73.14
2019-02-04T18:02:37.029Z,72.93
2019-02-04T18:03:37.017Z,72.21
2019-02-04T18:04:37.010Z,72.10
2019-02-04T18:05:37.008Z,71.79
2019-02-04T18:06:37.001Z,73.35
2019-02-04T18:07:36.976Z,72.62
2019-02-04T18:08:36.964Z,72.17
2019-02-04T18:09:36.953Z,72.48
2019-02-04T18:10:36.942Z,73.21
2019-02-04T18:11:36.932Z,70.51
2019-02-04T18:12:36.919Z,71.34
2019-02-04T18:13:36.908Z,72.69
2019-02-04T18:14:36.899Z,72.07
2019-02-04T18:15:36.888Z,71.65
2019-02-04T18:16:36.876Z,70.72
2019-02-04T18:17:36.865Z,71.65
2019-02-04T18:18:36.856Z,72.58
2019-02-04T18:19:36.843Z,70.85
2019-02-04T18:20:36.832Z,69.61
2019-02-04T18:21:36.823Z,71.27
2019-02-04T18:22:36.852Z,72.93
2019-02-04T18:23:45.641Z,73.45
2019-02-04T18:24:57.970Z,72.93
2019-02-04T18:25:57.959Z,73.04
2019-02-04T18:26:57.947Z,72.90
2019-02-04T18:27:57.939Z,72.38
2019-02-04T18:28:57.926Z,72.17
2019-02-04T18:29:57.917Z,72.07
2019-02-04T18:30:57.906Z,71.86
2019-02-04T18:31:57.895Z,71.55
2019-02-04T18:32:57.882Z,71.65
2019-02-04T18:33:57.872Z,70.72
2019-02-04T18:34:57.860Z,72.27
2019-02-04T18:35:57.848Z,70.82
2019-02-04T18:36:57.837Z,69.78